Airfield :
LOGIN :

Register | Disclaimer

   EN    FR    IT 

 










Legend :    VFR   Marginal VFR   IFR   Intensive IFR   Very Intensive IFR
Visi :
Ceiling :
>= 8 km
>= 3000ft
5 to 8 km
1000 to 3000 ft
1500m to 5 km
500 to 1000 ft
800 to 1500m
200 to 500 ft
< 800m
< 200 ft
Symbols :   Thunderstorms  Fog  Heavy snow  Heavy precipitations  Wind > 20 kt
SIGMETs :     Misc.  Thunderstorms  Icing  Turbulence  Mountain Waves  Volcanic Ashes







- Airport Elevation : 313 ft
- IATA code : LEH
- Download approach charts


LFOH - Le Havre Octeville

CURRENT METAR :
  • 212230Z AUTO 24002KT 9999 SCT018 BKN032 BKN054 14/12 Q1019

EXPIRED METARs :
  • 212200Z AUTO 25004KT 9999 FEW028 BKN043 OVC050 14/11 Q1020
  • 212130Z AUTO 28007KT 230V310 9999 FEW035 BKN041 BKN047 14/11 Q1019
  • 212100Z AUTO 28012KT 250V310 9999 -RA FEW020 OVC038 14/11 Q1019
  • 212030Z AUTO 29010KT 9999 -RA BKN017 BKN024 OVC038 15/12 Q1019
  • 212000Z AUTO 29007KT 9999 FEW010 BKN015 BKN029 15/13 Q1019

TAF AMD TAF LFOH
Valid from the 21 at 17:00 until the 22 at 12:00 UTC


211751Z 2117/2212 27006KT CAVOK
TEMPO 2117/2122 3000 DZRA BKN005 OVC013
BECMG 2122/2124 BKN020
ATIS : +33 2 35 54 64 93
No reported NOTAMs for that airfield.



MET'MAP, your aeronautical weather chart ! - Copyright ORBIFLY December 2007 - Disclaimer

ORBIFLY MET'MAP TEAM :

Programming & Development : Alexandra Zaïnal
Concept & Development : Baudouin d'Aumeries
Co-Development & Prog : Marc-Olivier Méhu
Technical & hardware support : Manuel Goepfert

Contact : metmap@orbifly.com




SOURCES & CREDITS :

   NOAA